Stillwell, Illinois
Current Conditions -  °F | °C
As of 5:55 AM on Friday 28 Nov 2014 (Local Time) from KEOK Reporting Station
Few Clouds Few Clouds  
Wind Chill: 12°   Ceiling: Unl
Heat Index: 21°   Visibility: 10mi
Dew Point: 18°   Wind: 8mph
Humidity: 86%   Direction: 130°SE
Pressure: 30.16"   Gusts: 14mph
Location:  40.2413°N, 91.2605°W
Report Text: KEOK 281155Z AUTO 13007G12KT 10SM FEW120 M06/M08 A3016 RMK AO2
Loading
Personal Weather Stations






























Interactive Weather Map New forecast layout! Learn more

10-Day Weather Forecast

Advertisements
Track Severe Weather on mobile